Santa Lucia — A8IP5 — position and weather

sailwx.info

Track history (hours):
 
Tides and Currents Weather Stations Pressure Air Temp Water Temp Dewpoint Dewpoint Depression Visibility Wind Speed Wind Dir Waves Ship Positions

Santa Lucia

Last reported at 2017-Aug-11 21:49 UTC. Time now 2017-Aug-17 07:53 UTC.
Position N 37°48' E 025°45'.

Length 143 m; beam 22 m.

Type: Cargo ship. MMSI: 636091017.

Date/timePositionNaut miles runAvg speedWind from/ knotsBaromVisibWave heightAir tempDewpointWater temp
2017-Aug-11 21:49N 37°48' E 025°45'1815.6
2017-Aug-11 20:41N 37°30' E 025°48'317.7
2017-Aug-11 20:30N 37°28' E 025°51'23714.8
2017-Aug-11 04:32N 35°45' E 030°17'217.6
2017-Aug-11 04:25N 35°45' E 030°19'717.6
2017-Aug-11 04:00N 35°45' E 030°28'917.6
2017-Aug-11 03:31N 35°45' E 030°39'917.4
2017-Aug-11 03:00N 35°45' E 030°50'817.0
2017-Aug-11 02:30N 35°45' E 031°00'1017.0
2017-Aug-11 01:56N 35°46' E 031°12'717.1
2017-Aug-11 01:30N 35°46' E 031°21'917.3
2017-Aug-11 01:00N 35°46' E 031°32'917.4
2017-Aug-11 00:29N 35°47' E 031°43'817.4
2017-Aug-11 00:00N 35°47' E 031°53'1717.6
2017-Aug-10 23:02N 35°48' E 032°14'117.8
2017-Aug-10 22:57N 35°48' E 032°16'817.7
2017-Aug-10 22:30N 35°48' E 032°26'917.5
2017-Aug-10 22:01N 35°48' E 032°36'917.3
2017-Aug-10 21:30N 35°48' E 032°47'817.0
2017-Aug-10 21:00N 35°48' E 032°58'816.9
2017-Aug-10 20:30N 35°49' E 033°08'  
2017-Aug-07 06:15N 33°37' E 021°16'1416.7
2017-Aug-07 05:27N 33°35' E 020°60'716.7
2017-Aug-07 05:00N 33°34' E 020°51'1316.8
2017-Aug-07 04:14N 33°32' E 020°36'416.9
2017-Aug-07 04:00N 33°31' E 020°31'1216.8
2017-Aug-07 03:18N 33°29' E 020°17'516.8
2017-Aug-07 03:00N 33°28' E 020°11'1317.0
2017-Aug-07 02:13N 33°26' E 019°56'416.9
2017-Aug-07 02:01N 33°26' E 019°51'8216.6
2017-Aug-06 21:02N 33°13' E 018°14'516.5
2017-Aug-06 20:45N 33°12' E 018°08'416.6
2017-Aug-06 20:30N 33°11' E 018°03'3516.4
2017-Aug-06 18:22N 33°06' E 017°22'1616.1
2017-Aug-06 17:22N 33°03' E 017°03'1716.0
2017-Aug-06 16:20N 33°01' E 016°44'516.2
2017-Aug-06 16:00N 32°60' E 016°37'816.2
2017-Aug-06 15:30N 32°58' E 016°28'816.4
2017-Aug-06 15:00N 32°57' E 016°18'816.5
2017-Aug-06 14:30N 32°56' E 016°09'1716.5
2017-Aug-06 13:30N 32°53' E 015°49'816.5
2017-Aug-06 13:00N 32°52' E 015°39'816.4
2017-Aug-06 12:30N 32°51' E 015°30'1216.3
2017-Aug-06 11:44N 32°49' E 015°15'1116.3
2017-Aug-06 11:04N 32°47' E 015°02'416.5
2017-Aug-06 10:49N 32°46' E 014°57'1616.7
2017-Aug-06 09:53N 32°44' E 014°39'617.0
2017-Aug-06 09:30N 32°43' E 014°31'1315.6
2017-Aug-06 08:40N 32°41' E 014°16'1 5.7
2017-Aug-06 08:28N 32°41' E 014°15'1 1.3
2017-Aug-06 07:59N 32°41' E 014°15'0 0.0
2017-Aug-06 07:30N 32°41' E 014°15'0 0.0
2017-Aug-04 08:19N 32°41' E 014°15'0 0.0
2017-Aug-04 07:14N 32°41' E 014°15'0 0.0
2017-Aug-04 07:00N 32°41' E 014°15'0 0.0
2017-Aug-04 06:25N 32°41' E 014°15'0 0.0
2017-Aug-04 05:59N 32°41' E 014°15'0 0.0
2017-Aug-04 05:26N 32°41' E 014°15'0 0.0
2017-Aug-04 05:00N 32°41' E 014°15'0 0.0
2017-Aug-04 04:31N 32°41' E 014°15'0 0.0
2017-Aug-04 02:36N 32°41' E 014°15'0 0.0
2017-Aug-04 02:22N 32°41' E 014°15'0 0.0
2017-Aug-04 01:56N 32°41' E 014°15'0 0.0
2017-Aug-03 13:54N 32°41' E 014°15'0 0.0
2017-Aug-03 13:31N 32°41' E 014°15'0 0.0
2017-Aug-03 12:59N 32°41' E 014°15'0 0.0
2017-Aug-03 10:04N 32°41' E 014°15'0 0.0
2017-Aug-03 09:57N 32°41' E 014°15'0 0.0
2017-Aug-03 09:28N 32°41' E 014°15'0 0.0
2017-Aug-03 07:57N 32°41' E 014°15'0 0.0
2017-Aug-02 17:17N 32°41' E 014°15'0 0.0
2017-Aug-02 17:00N 32°41' E 014°15'0 0.0
2017-Aug-02 14:20N 32°41' E 014°15'0 0.0
2017-Aug-02 13:24N 32°41' E 014°15'0 0.0
2017-Aug-02 12:56N 32°41' E 014°15'0 0.0
2017-Aug-02 12:23N 32°41' E 014°15'0 0.0
2017-Aug-02 12:00N 32°41' E 014°15'0 0.0
2017-Aug-02 11:29N 32°41' E 014°15'0 0.0
2017-Aug-02 10:57N 32°41' E 014°15'0 0.0
2017-Aug-02 09:55N 32°41' E 014°15'2 1.0
2017-Aug-02 07:49N 32°41' E 014°17'1 3.2
2017-Aug-02 07:30N 32°42' E 014°18'1 0.5
2017-Aug-02 05:09N 32°42' E 014°20'0 0.0
2017-Aug-02 04:59N 32°42' E 014°20'0 0.0
2017-Aug-02 04:25N 32°42' E 014°20'  
Track history (hours):
 
Tides and Currents Weather Stations Pressure Air Temp Water Temp Dewpoint Dewpoint Depression Visibility Wind Speed Wind Dir Waves Ship Positions

Santa Lucia

Last reported at 2017-Aug-11 21:49 UTC. Time now 2017-Aug-17 07:53 UTC.
Position N 37°48' E 025°45'.

Length 143 m; beam 22 m.

Type: Cargo ship. MMSI: 636091017.

Date/timePositionNaut miles runAvg speedWind from/ knotsBaromVisibWave heightAir tempDewpointWater temp
2017-Aug-11 21:49N 37°48' E 025°45'1815.6
2017-Aug-11 20:41N 37°30' E 025°48'317.7
2017-Aug-11 20:30N 37°28' E 025°51'23714.8
2017-Aug-11 04:32N 35°45' E 030°17'217.6
2017-Aug-11 04:25N 35°45' E 030°19'717.6
2017-Aug-11 04:00N 35°45' E 030°28'917.6
2017-Aug-11 03:31N 35°45' E 030°39'917.4
2017-Aug-11 03:00N 35°45' E 030°50'817.0
2017-Aug-11 02:30N 35°45' E 031°00'1017.0
2017-Aug-11 01:56N 35°46' E 031°12'717.1
2017-Aug-11 01:30N 35°46' E 031°21'917.3
2017-Aug-11 01:00N 35°46' E 031°32'917.4
2017-Aug-11 00:29N 35°47' E 031°43'817.4
2017-Aug-11 00:00N 35°47' E 031°53'1717.6
2017-Aug-10 23:02N 35°48' E 032°14'117.8
2017-Aug-10 22:57N 35°48' E 032°16'817.7
2017-Aug-10 22:30N 35°48' E 032°26'917.5
2017-Aug-10 22:01N 35°48' E 032°36'917.3
2017-Aug-10 21:30N 35°48' E 032°47'817.0
2017-Aug-10 21:00N 35°48' E 032°58'816.9
2017-Aug-10 20:30N 35°49' E 033°08'  
2017-Aug-07 06:15N 33°37' E 021°16'1416.7
2017-Aug-07 05:27N 33°35' E 020°60'716.7
2017-Aug-07 05:00N 33°34' E 020°51'1316.8
2017-Aug-07 04:14N 33°32' E 020°36'416.9
2017-Aug-07 04:00N 33°31' E 020°31'1216.8
2017-Aug-07 03:18N 33°29' E 020°17'516.8
2017-Aug-07 03:00N 33°28' E 020°11'1317.0
2017-Aug-07 02:13N 33°26' E 019°56'416.9
2017-Aug-07 02:01N 33°26' E 019°51'8216.6
2017-Aug-06 21:02N 33°13' E 018°14'516.5
2017-Aug-06 20:45N 33°12' E 018°08'416.6
2017-Aug-06 20:30N 33°11' E 018°03'3516.4
2017-Aug-06 18:22N 33°06' E 017°22'1616.1
2017-Aug-06 17:22N 33°03' E 017°03'1716.0
2017-Aug-06 16:20N 33°01' E 016°44'516.2
2017-Aug-06 16:00N 32°60' E 016°37'816.2
2017-Aug-06 15:30N 32°58' E 016°28'816.4
2017-Aug-06 15:00N 32°57' E 016°18'816.5
2017-Aug-06 14:30N 32°56' E 016°09'1716.5
2017-Aug-06 13:30N 32°53' E 015°49'816.5
2017-Aug-06 13:00N 32°52' E 015°39'816.4
2017-Aug-06 12:30N 32°51' E 015°30'1216.3
2017-Aug-06 11:44N 32°49' E 015°15'1116.3
2017-Aug-06 11:04N 32°47' E 015°02'416.5
2017-Aug-06 10:49N 32°46' E 014°57'1616.7
2017-Aug-06 09:53N 32°44' E 014°39'617.0
2017-Aug-06 09:30N 32°43' E 014°31'1315.6
2017-Aug-06 08:40N 32°41' E 014°16'1 5.7
2017-Aug-06 08:28N 32°41' E 014°15'1 1.3
2017-Aug-06 07:59N 32°41' E 014°15'0 0.0
2017-Aug-06 07:30N 32°41' E 014°15'0 0.0
2017-Aug-04 08:19N 32°41' E 014°15'0 0.0
2017-Aug-04 07:14N 32°41' E 014°15'0 0.0
2017-Aug-04 07:00N 32°41' E 014°15'0 0.0
2017-Aug-04 06:25N 32°41' E 014°15'0 0.0
2017-Aug-04 05:59N 32°41' E 014°15'0 0.0
2017-Aug-04 05:26N 32°41' E 014°15'0 0.0
2017-Aug-04 05:00N 32°41' E 014°15'0 0.0
2017-Aug-04 04:31N 32°41' E 014°15'0 0.0
2017-Aug-04 02:36N 32°41' E 014°15'0 0.0
2017-Aug-04 02:22N 32°41' E 014°15'0 0.0
2017-Aug-04 01:56N 32°41' E 014°15'0 0.0
2017-Aug-03 13:54N 32°41' E 014°15'0 0.0
2017-Aug-03 13:31N 32°41' E 014°15'0 0.0
2017-Aug-03 12:59N 32°41' E 014°15'0 0.0
2017-Aug-03 10:04N 32°41' E 014°15'0 0.0
2017-Aug-03 09:57N 32°41' E 014°15'0 0.0
2017-Aug-03 09:28N 32°41' E 014°15'0 0.0
2017-Aug-03 07:57N 32°41' E 014°15'0 0.0
2017-Aug-02 17:17N 32°41' E 014°15'0 0.0
2017-Aug-02 17:00N 32°41' E 014°15'0 0.0
2017-Aug-02 14:20N 32°41' E 014°15'0 0.0
2017-Aug-02 13:24N 32°41' E 014°15'0 0.0
2017-Aug-02 12:56N 32°41' E 014°15'0 0.0
2017-Aug-02 12:23N 32°41' E 014°15'0 0.0
2017-Aug-02 12:00N 32°41' E 014°15'0 0.0
2017-Aug-02 11:29N 32°41' E 014°15'0 0.0
2017-Aug-02 10:57N 32°41' E 014°15'0 0.0
2017-Aug-02 09:55N 32°41' E 014°15'2 1.0
2017-Aug-02 07:49N 32°41' E 014°17'1 3.2
2017-Aug-02 07:30N 32°42' E 014°18'1 0.5
2017-Aug-02 05:09N 32°42' E 014°20'0 0.0
2017-Aug-02 04:59N 32°42' E 014°20'0 0.0
2017-Aug-02 04:25N 32°42' E 014°20'  

Dump ship's entire track history